sensor_id;sensor_type;location;lat;lon;timestamp;P1;durP1;ratioP1;P2;durP2;ratioP2
73733;SDS011;62039;50.000;9.064;2022-07-22T00:00:10;2.83;;;2.63;;
73733;SDS011;62039;50.000;9.064;2022-07-22T00:02:38;2.80;;;2.60;;
73733;SDS011;62039;50.000;9.064;2022-07-22T00:05:05;2.77;;;2.57;;
73733;SDS011;62039;50.000;9.064;2022-07-22T00:07:33;3.37;;;2.80;;
73733;SDS011;62039;50.000;9.064;2022-07-22T00:10:00;3.23;;;2.90;;
73733;SDS011;62039;50.000;9.064;2022-07-22T00:12:26;4.20;;;2.90;;
73733;SDS011;62039;50.000;9.064;2022-07-22T00:14:54;3.17;;;2.87;;
73733;SDS011;62039;50.000;9.064;2022-07-22T00:17:21;2.90;;;2.70;;
73733;SDS011;62039;50.000;9.064;2022-07-22T00:19:47;2.83;;;2.63;;
73733;SDS011;62039;50.000;9.064;2022-07-22T00:22:14;2.90;;;2.63;;
73733;SDS011;62039;50.000;9.064;2022-07-22T00:24:40;3.67;;;2.97;;
73733;SDS011;62039;50.000;9.064;2022-07-22T00:27:07;3.23;;;3.00;;
73733;SDS011;62039;50.000;9.064;2022-07-22T00:29:34;3.10;;;2.87;;
73733;SDS011;62039;50.000;9.064;2022-07-22T00:32:02;3.20;;;2.90;;
73733;SDS011;62039;50.000;9.064;2022-07-22T00:34:28;3.00;;;2.80;;
73733;SDS011;62039;50.000;9.064;2022-07-22T00:36:55;3.17;;;2.97;;
73733;SDS011;62039;50.000;9.064;2022-07-22T00:39:21;2.87;;;2.67;;
73733;SDS011;62039;50.000;9.064;2022-07-22T00:41:48;3.10;;;2.80;;
73733;SDS011;62039;50.000;9.064;2022-07-22T00:44:15;2.90;;;2.70;;
73733;SDS011;62039;50.000;9.064;2022-07-22T00:46:42;3.63;;;2.90;;
73733;SDS011;62039;50.000;9.064;2022-07-22T00:49:10;3.00;;;2.77;;
73733;SDS011;62039;50.000;9.064;2022-07-22T00:51:37;2.73;;;2.53;;
73733;SDS011;62039;50.000;9.064;2022-07-22T00:54:04;2.87;;;2.67;;
73733;SDS011;62039;50.000;9.064;2022-07-22T00:56:31;3.13;;;2.77;;
73733;SDS011;62039;50.000;9.064;2022-07-22T00:58:58;3.30;;;2.60;;
73733;SDS011;62039;50.000;9.064;2022-07-22T01:01:26;3.10;;;2.80;;
73733;SDS011;62039;50.000;9.064;2022-07-22T01:03:53;2.80;;;2.60;;
73733;SDS011;62039;50.000;9.064;2022-07-22T01:06:28;3.17;;;2.97;;
73733;SDS011;62039;50.000;9.064;2022-07-22T01:08:54;2.80;;;2.60;;
73733;SDS011;62039;50.000;9.064;2022-07-22T01:11:23;2.93;;;2.73;;
73733;SDS011;62039;50.000;9.064;2022-07-22T01:13:51;2.80;;;2.60;;
73733;SDS011;62039;50.000;9.064;2022-07-22T01:16:18;2.87;;;2.67;;
73733;SDS011;62039;50.000;9.064;2022-07-22T01:18:46;2.93;;;2.73;;
73733;SDS011;62039;50.000;9.064;2022-07-22T01:21:14;2.40;;;2.20;;
73733;SDS011;62039;50.000;9.064;2022-07-22T01:23:41;2.60;;;2.40;;
73733;SDS011;62039;50.000;9.064;2022-07-22T01:26:08;2.93;;;2.73;;
73733;SDS011;62039;50.000;9.064;2022-07-22T01:28:35;3.00;;;2.70;;
73733;SDS011;62039;50.000;9.064;2022-07-22T01:31:02;2.77;;;2.57;;
73733;SDS011;62039;50.000;9.064;2022-07-22T01:33:29;3.03;;;2.73;;
73733;SDS011;62039;50.000;9.064;2022-07-22T01:35:56;3.00;;;2.70;;
73733;SDS011;62039;50.000;9.064;2022-07-22T01:38:24;4.63;;;2.67;;
73733;SDS011;62039;50.000;9.064;2022-07-22T01:40:51;3.00;;;2.80;;
73733;SDS011;62039;50.000;9.064;2022-07-22T01:43:17;3.10;;;2.80;;
73733;SDS011;62039;50.000;9.064;2022-07-22T01:45:44;3.57;;;2.90;;
73733;SDS011;62039;50.000;9.064;2022-07-22T01:48:12;2.80;;;2.53;;
73733;SDS011;62039;50.000;9.064;2022-07-22T01:50:38;3.10;;;2.90;;
73733;SDS011;62039;50.000;9.064;2022-07-22T01:53:05;3.27;;;3.07;;
73733;SDS011;62039;50.000;9.064;2022-07-22T01:55:33;4.00;;;3.60;;
73733;SDS011;62039;50.000;9.064;2022-07-22T01:58:00;3.67;;;3.37;;
73733;SDS011;62039;50.000;9.064;2022-07-22T02:00:27;3.00;;;2.80;;
73733;SDS011;62039;50.000;9.064;2022-07-22T02:02:53;3.37;;;3.10;;
73733;SDS011;62039;50.000;9.064;2022-07-22T02:05:20;3.33;;;3.03;;
73733;SDS011;62039;50.000;9.064;2022-07-22T02:07:46;3.37;;;3.07;;
73733;SDS011;62039;50.000;9.064;2022-07-22T02:10:13;3.50;;;3.23;;
73733;SDS011;62039;50.000;9.064;2022-07-22T02:12:41;3.27;;;2.93;;
73733;SDS011;62039;50.000;9.064;2022-07-22T02:15:08;3.30;;;3.10;;
73733;SDS011;62039;50.000;9.064;2022-07-22T02:17:35;3.13;;;2.93;;
73733;SDS011;62039;50.000;9.064;2022-07-22T02:20:02;3.13;;;2.83;;
73733;SDS011;62039;50.000;9.064;2022-07-22T02:22:30;2.70;;;2.50;;
73733;SDS011;62039;50.000;9.064;2022-07-22T02:24:57;3.03;;;2.77;;
73733;SDS011;62039;50.000;9.064;2022-07-22T02:27:23;3.57;;;3.27;;
73733;SDS011;62039;50.000;9.064;2022-07-22T02:29:51;2.93;;;2.73;;
73733;SDS011;62039;50.000;9.064;2022-07-22T02:32:18;3.20;;;2.90;;
73733;SDS011;62039;50.000;9.064;2022-07-22T02:34:45;3.60;;;3.30;;
73733;SDS011;62039;50.000;9.064;2022-07-22T02:37:11;3.13;;;2.80;;
73733;SDS011;62039;50.000;9.064;2022-07-22T02:39:38;3.07;;;2.77;;
73733;SDS011;62039;50.000;9.064;2022-07-22T02:42:05;2.70;;;2.50;;
73733;SDS011;62039;50.000;9.064;2022-07-22T02:44:31;2.90;;;2.70;;
73733;SDS011;62039;50.000;9.064;2022-07-22T02:46:59;3.60;;;3.03;;
73733;SDS011;62039;50.000;9.064;2022-07-22T02:49:26;3.00;;;2.77;;
73733;SDS011;62039;50.000;9.064;2022-07-22T02:51:52;3.43;;;2.77;;
73733;SDS011;62039;50.000;9.064;2022-07-22T02:54:19;3.90;;;3.50;;
73733;SDS011;62039;50.000;9.064;2022-07-22T02:56:46;3.10;;;2.80;;
73733;SDS011;62039;50.000;9.064;2022-07-22T02:59:12;3.30;;;2.83;;
73733;SDS011;62039;50.000;9.064;2022-07-22T03:01:39;3.10;;;2.87;;
73733;SDS011;62039;50.000;9.064;2022-07-22T03:04:07;4.00;;;2.40;;
73733;SDS011;62039;50.000;9.064;2022-07-22T03:06:34;2.53;;;2.33;;
73733;SDS011;62039;50.000;9.064;2022-07-22T03:09:00;5.37;;;2.87;;
73733;SDS011;62039;50.000;9.064;2022-07-22T03:11:27;3.10;;;2.83;;
73733;SDS011;62039;50.000;9.064;2022-07-22T03:13:54;2.97;;;2.67;;
73733;SDS011;62039;50.000;9.064;2022-07-22T03:16:20;3.50;;;2.80;;
73733;SDS011;62039;50.000;9.064;2022-07-22T03:18:47;3.23;;;2.93;;
73733;SDS011;62039;50.000;9.064;2022-07-22T03:21:15;2.83;;;2.63;;
73733;SDS011;62039;50.000;9.064;2022-07-22T03:23:41;3.27;;;2.70;;
73733;SDS011;62039;50.000;9.064;2022-07-22T03:26:08;2.97;;;2.77;;
73733;SDS011;62039;50.000;9.064;2022-07-22T03:28:34;3.43;;;3.13;;
73733;SDS011;62039;50.000;9.064;2022-07-22T03:31:01;3.50;;;3.20;;
73733;SDS011;62039;50.000;9.064;2022-07-22T03:33:28;3.87;;;3.43;;
73733;SDS011;62039;50.000;9.064;2022-07-22T03:35:54;3.40;;;3.10;;
73733;SDS011;62039;50.000;9.064;2022-07-22T03:38:22;5.20;;;3.80;;
73733;SDS011;62039;50.000;9.064;2022-07-22T03:40:49;3.27;;;2.97;;
73733;SDS011;62039;50.000;9.064;2022-07-22T03:43:15;4.00;;;3.60;;
73733;SDS011;62039;50.000;9.064;2022-07-22T03:45:42;4.30;;;3.53;;
73733;SDS011;62039;50.000;9.064;2022-07-22T03:48:10;3.27;;;2.97;;
73733;SDS011;62039;50.000;9.064;2022-07-22T03:50:36;3.73;;;3.40;;
73733;SDS011;62039;50.000;9.064;2022-07-22T03:53:03;3.50;;;3.27;;
73733;SDS011;62039;50.000;9.064;2022-07-22T03:55:31;5.30;;;3.33;;
73733;SDS011;62039;50.000;9.064;2022-07-22T03:57:57;3.27;;;2.97;;
73733;SDS011;62039;50.000;9.064;2022-07-22T04:00:24;2.97;;;2.70;;
73733;SDS011;62039;50.000;9.064;2022-07-22T04:02:50;4.17;;;3.10;;
73733;SDS011;62039;50.000;9.064;2022-07-22T04:05:17;2.70;;;2.17;;
73733;SDS011;62039;50.000;9.064;2022-07-22T04:07:44;2.90;;;2.63;;
73733;SDS011;62039;50.000;9.064;2022-07-22T04:10:11;3.10;;;2.80;;
73733;SDS011;62039;50.000;9.064;2022-07-22T04:12:39;3.20;;;2.90;;
73733;SDS011;62039;50.000;9.064;2022-07-22T04:15:07;3.23;;;2.90;;
73733;SDS011;62039;50.000;9.064;2022-07-22T04:17:34;3.10;;;2.90;;
73733;SDS011;62039;50.000;9.064;2022-07-22T04:20:01;3.37;;;3.03;;
73733;SDS011;62039;50.000;9.064;2022-07-22T04:22:28;3.27;;;2.93;;
73733;SDS011;62039;50.000;9.064;2022-07-22T04:24:55;2.87;;;2.53;;
73733;SDS011;62039;50.000;9.064;2022-07-22T04:27:22;3.40;;;3.10;;
73733;SDS011;62039;50.000;9.064;2022-07-22T04:29:49;3.30;;;3.00;;
73733;SDS011;62039;50.000;9.064;2022-07-22T04:32:16;3.27;;;2.97;;
73733;SDS011;62039;50.000;9.064;2022-07-22T04:34:43;3.30;;;3.00;;
73733;SDS011;62039;50.000;9.064;2022-07-22T04:37:09;3.00;;;2.80;;
73733;SDS011;62039;50.000;9.064;2022-07-22T04:39:36;2.73;;;2.53;;
73733;SDS011;62039;50.000;9.064;2022-07-22T04:42:03;3.00;;;2.80;;
73733;SDS011;62039;50.000;9.064;2022-07-22T04:44:29;3.53;;;3.17;;
73733;SDS011;62039;50.000;9.064;2022-07-22T04:46:57;3.10;;;2.80;;
73733;SDS011;62039;50.000;9.064;2022-07-22T04:49:29;2.83;;;2.63;;
73733;SDS011;62039;50.000;9.064;2022-07-22T04:51:57;3.37;;;2.77;;
73733;SDS011;62039;50.000;9.064;2022-07-22T04:54:23;3.13;;;2.83;;
73733;SDS011;62039;50.000;9.064;2022-07-22T04:56:50;3.23;;;2.93;;
73733;SDS011;62039;50.000;9.064;2022-07-22T04:59:16;3.10;;;2.90;;
73733;SDS011;62039;50.000;9.064;2022-07-22T05:01:43;3.10;;;2.70;;
73733;SDS011;62039;50.000;9.064;2022-07-22T05:04:11;3.60;;;3.30;;
73733;SDS011;62039;50.000;9.064;2022-07-22T05:06:38;3.33;;;3.03;;
73733;SDS011;62039;50.000;9.064;2022-07-22T05:09:04;3.47;;;3.17;;
73733;SDS011;62039;50.000;9.064;2022-07-22T05:11:31;3.40;;;3.10;;
73733;SDS011;62039;50.000;9.064;2022-07-22T05:13:58;3.57;;;3.27;;
73733;SDS011;62039;50.000;9.064;2022-07-22T05:16:25;3.57;;;3.27;;
73733;SDS011;62039;50.000;9.064;2022-07-22T05:18:51;3.57;;;3.17;;
73733;SDS011;62039;50.000;9.064;2022-07-22T05:21:20;3.90;;;3.20;;
73733;SDS011;62039;50.000;9.064;2022-07-22T05:23:46;3.90;;;3.30;;
73733;SDS011;62039;50.000;9.064;2022-07-22T05:26:13;3.73;;;3.43;;
73733;SDS011;62039;50.000;9.064;2022-07-22T05:28:39;4.10;;;3.70;;
73733;SDS011;62039;50.000;9.064;2022-07-22T05:31:06;4.63;;;4.10;;
73733;SDS011;62039;50.000;9.064;2022-07-22T05:33:33;4.03;;;3.73;;
73733;SDS011;62039;50.000;9.064;2022-07-22T05:36:00;3.50;;;3.20;;
73733;SDS011;62039;50.000;9.064;2022-07-22T05:38:28;3.73;;;3.43;;
73733;SDS011;62039;50.000;9.064;2022-07-22T05:40:54;4.13;;;3.73;;
73733;SDS011;62039;50.000;9.064;2022-07-22T05:43:21;3.73;;;3.43;;
73733;SDS011;62039;50.000;9.064;2022-07-22T05:45:47;3.37;;;3.10;;
73733;SDS011;62039;50.000;9.064;2022-07-22T05:48:14;3.67;;;3.37;;
73733;SDS011;62039;50.000;9.064;2022-07-22T05:50:40;3.53;;;3.23;;
73733;SDS011;62039;50.000;9.064;2022-07-22T05:53:07;3.73;;;3.10;;
73733;SDS011;62039;50.000;9.064;2022-07-22T05:55:35;3.70;;;3.00;;
73733;SDS011;62039;50.000;9.064;2022-07-22T05:58:02;3.00;;;2.80;;
73733;SDS011;62039;50.000;9.064;2022-07-22T06:00:28;3.83;;;3.00;;
73733;SDS011;62039;50.000;9.064;2022-07-22T06:02:55;3.40;;;3.10;;
73733;SDS011;62039;50.000;9.064;2022-07-22T06:05:22;2.97;;;2.77;;
73733;SDS011;62039;50.000;9.064;2022-07-22T06:08:02;4.50;;;3.07;;
73733;SDS011;62039;50.000;9.064;2022-07-22T06:10:29;3.37;;;3.07;;
73733;SDS011;62039;50.000;9.064;2022-07-22T06:12:57;2.90;;;2.70;;
73733;SDS011;62039;50.000;9.064;2022-07-22T06:15:24;2.60;;;2.40;;
73733;SDS011;62039;50.000;9.064;2022-07-22T06:17:52;3.33;;;3.03;;
73733;SDS011;62039;50.000;9.064;2022-07-22T06:20:19;2.90;;;2.70;;
73733;SDS011;62039;50.000;9.064;2022-07-22T06:22:46;3.10;;;2.83;;
73733;SDS011;62039;50.000;9.064;2022-07-22T06:25:13;3.00;;;2.70;;
73733;SDS011;62039;50.000;9.064;2022-07-22T06:28:01;2.73;;;2.53;;
73733;SDS011;62039;50.000;9.064;2022-07-22T06:30:27;2.43;;;2.23;;
73733;SDS011;62039;50.000;9.064;2022-07-22T06:32:54;2.83;;;2.53;;
73733;SDS011;62039;50.000;9.064;2022-07-22T06:35:22;3.30;;;2.70;;
73733;SDS011;62039;50.000;9.064;2022-07-22T06:37:49;2.50;;;2.30;;
73733;SDS011;62039;50.000;9.064;2022-07-22T06:40:31;2.47;;;2.27;;
73733;SDS011;62039;50.000;9.064;2022-07-22T06:42:58;2.60;;;2.40;;
73733;SDS011;62039;50.000;9.064;2022-07-22T06:45:26;2.97;;;2.33;;
73733;SDS011;62039;50.000;9.064;2022-07-22T06:47:53;2.07;;;1.97;;
73733;SDS011;62039;50.000;9.064;2022-07-22T06:50:20;2.50;;;2.30;;
73733;SDS011;62039;50.000;9.064;2022-07-22T06:52:49;2.30;;;2.20;;
73733;SDS011;62039;50.000;9.064;2022-07-22T06:55:16;1.97;;;1.87;;
73733;SDS011;62039;50.000;9.064;2022-07-22T06:57:42;1.90;;;1.80;;
73733;SDS011;62039;50.000;9.064;2022-07-22T07:00:09;2.37;;;2.00;;
73733;SDS011;62039;50.000;9.064;2022-07-22T07:02:38;2.30;;;2.10;;
73733;SDS011;62039;50.000;9.064;2022-07-22T07:05:05;2.33;;;2.13;;
73733;SDS011;62039;50.000;9.064;2022-07-22T07:07:32;2.20;;;2.00;;
73733;SDS011;62039;50.000;9.064;2022-07-22T07:10:03;2.10;;;2.00;;
73733;SDS011;62039;50.000;9.064;2022-07-22T07:12:34;2.87;;;2.40;;
73733;SDS011;62039;50.000;9.064;2022-07-22T07:15:03;2.30;;;2.10;;
73733;SDS011;62039;50.000;9.064;2022-07-22T07:17:51;1.80;;;1.70;;
73733;SDS011;62039;50.000;9.064;2022-07-22T07:20:19;1.93;;;1.83;;
73733;SDS011;62039;50.000;9.064;2022-07-22T07:22:45;2.10;;;2.00;;
73733;SDS011;62039;50.000;9.064;2022-07-22T07:25:12;1.90;;;1.70;;
73733;SDS011;62039;50.000;9.064;2022-07-22T07:27:48;1.93;;;1.83;;
73733;SDS011;62039;50.000;9.064;2022-07-22T07:30:15;2.73;;;2.20;;
73733;SDS011;62039;50.000;9.064;2022-07-22T07:32:42;2.40;;;2.20;;
73733;SDS011;62039;50.000;9.064;2022-07-22T07:35:10;2.03;;;1.93;;
73733;SDS011;62039;50.000;9.064;2022-07-22T07:37:37;2.03;;;1.93;;
73733;SDS011;62039;50.000;9.064;2022-07-22T07:40:04;2.37;;;2.17;;
73733;SDS011;62039;50.000;9.064;2022-07-22T07:42:32;2.50;;;2.17;;
73733;SDS011;62039;50.000;9.064;2022-07-22T07:45:00;2.30;;;2.20;;
73733;SDS011;62039;50.000;9.064;2022-07-22T07:47:27;2.70;;;2.50;;
73733;SDS011;62039;50.000;9.064;2022-07-22T07:49:53;1.80;;;1.70;;
73733;SDS011;62039;50.000;9.064;2022-07-22T07:52:21;2.73;;;2.00;;
73733;SDS011;62039;50.000;9.064;2022-07-22T07:54:48;2.17;;;1.90;;
73733;SDS011;62039;50.000;9.064;2022-07-22T07:57:35;1.87;;;1.77;;
73733;SDS011;62039;50.000;9.064;2022-07-22T08:00:03;2.13;;;2.03;;
73733;SDS011;62039;50.000;9.064;2022-07-22T08:02:37;2.53;;;2.33;;
73733;SDS011;62039;50.000;9.064;2022-07-22T08:05:06;2.33;;;1.90;;
73733;SDS011;62039;50.000;9.064;2022-07-22T08:07:36;2.13;;;2.03;;
73733;SDS011;62039;50.000;9.064;2022-07-22T08:10:03;1.90;;;1.80;;
73733;SDS011;62039;50.000;9.064;2022-07-22T08:12:51;2.37;;;2.17;;
73733;SDS011;62039;50.000;9.064;2022-07-22T08:15:18;2.27;;;2.07;;
73733;SDS011;62039;50.000;9.064;2022-07-22T08:17:44;2.00;;;1.90;;
73733;SDS011;62039;50.000;9.064;2022-07-22T08:20:11;3.30;;;2.40;;
73733;SDS011;62039;50.000;9.064;2022-07-22T08:22:47;3.00;;;2.20;;
73733;SDS011;62039;50.000;9.064;2022-07-22T08:25:14;2.07;;;1.97;;
73733;SDS011;62039;50.000;9.064;2022-07-22T08:27:41;2.47;;;2.20;;
73733;SDS011;62039;50.000;9.064;2022-07-22T08:30:08;2.00;;;1.90;;
73733;SDS011;62039;50.000;9.064;2022-07-22T08:32:35;2.20;;;2.00;;
73733;SDS011;62039;50.000;9.064;2022-07-22T08:35:02;1.97;;;1.83;;
73733;SDS011;62039;50.000;9.064;2022-07-22T08:37:30;2.60;;;2.40;;
73733;SDS011;62039;50.000;9.064;2022-07-22T08:39:58;2.27;;;2.03;;
73733;SDS011;62039;50.000;9.064;2022-07-22T08:42:25;2.00;;;1.90;;
73733;SDS011;62039;50.000;9.064;2022-07-22T08:44:52;2.40;;;2.20;;
73733;SDS011;62039;50.000;9.064;2022-07-22T08:47:26;2.50;;;2.40;;
73733;SDS011;62039;50.000;9.064;2022-07-22T08:50:07;2.63;;;2.10;;
73733;SDS011;62039;50.000;9.064;2022-07-22T08:52:34;2.50;;;2.30;;
73733;SDS011;62039;50.000;9.064;2022-07-22T08:55:03;2.10;;;2.00;;
73733;SDS011;62039;50.000;9.064;2022-07-22T08:57:31;2.20;;;2.00;;
73733;SDS011;62039;50.000;9.064;2022-07-22T08:59:58;2.33;;;2.13;;
73733;SDS011;62039;50.000;9.064;2022-07-22T09:02:26;2.17;;;2.07;;
73733;SDS011;62039;50.000;9.064;2022-07-22T09:04:55;2.70;;;2.50;;
73733;SDS011;62039;50.000;9.064;2022-07-22T09:07:24;2.40;;;2.20;;
73733;SDS011;62039;50.000;9.064;2022-07-22T09:09:52;2.50;;;2.30;;
73733;SDS011;62039;50.000;9.064;2022-07-22T09:12:20;2.60;;;2.40;;
73733;SDS011;62039;50.000;9.064;2022-07-22T09:14:48;3.70;;;2.50;;
73733;SDS011;62039;50.000;9.064;2022-07-22T09:17:22;2.40;;;2.07;;
73733;SDS011;62039;50.000;9.064;2022-07-22T09:19:51;2.27;;;2.17;;
73733;SDS011;62039;50.000;9.064;2022-07-22T09:22:29;2.87;;;2.67;;
73733;SDS011;62039;50.000;9.064;2022-07-22T09:25:10;2.90;;;2.30;;
73733;SDS011;62039;50.000;9.064;2022-07-22T09:27:45;2.80;;;2.20;;
73733;SDS011;62039;50.000;9.064;2022-07-22T09:30:13;2.23;;;2.13;;
73733;SDS011;62039;50.000;9.064;2022-07-22T09:32:42;2.20;;;2.10;;
73733;SDS011;62039;50.000;9.064;2022-07-22T09:35:11;2.00;;;1.90;;
73733;SDS011;62039;50.000;9.064;2022-07-22T09:37:38;2.33;;;2.20;;
73733;SDS011;62039;50.000;9.064;2022-07-22T09:40:14;2.57;;;2.37;;
73733;SDS011;62039;50.000;9.064;2022-07-22T09:42:47;3.17;;;2.90;;
73733;SDS011;62039;50.000;9.064;2022-07-22T09:45:16;2.50;;;2.30;;
73733;SDS011;62039;50.000;9.064;2022-07-22T09:47:43;2.70;;;2.50;;
73733;SDS011;62039;50.000;9.064;2022-07-22T09:50:14;2.67;;;2.47;;
73733;SDS011;62039;50.000;9.064;2022-07-22T09:52:47;2.53;;;2.33;;
73733;SDS011;62039;50.000;9.064;2022-07-22T09:55:19;2.07;;;1.97;;
73733;SDS011;62039;50.000;9.064;2022-07-22T09:57:50;2.50;;;2.30;;
73733;SDS011;62039;50.000;9.064;2022-07-22T10:00:19;2.30;;;2.10;;
73733;SDS011;62039;50.000;9.064;2022-07-22T10:02:48;2.70;;;2.50;;
73733;SDS011;62039;50.000;9.064;2022-07-22T10:05:16;2.50;;;2.30;;
73733;SDS011;62039;50.000;9.064;2022-07-22T10:07:44;2.30;;;2.17;;
73733;SDS011;62039;50.000;9.064;2022-07-22T10:10:12;2.50;;;2.30;;
73733;SDS011;62039;50.000;9.064;2022-07-22T10:12:41;2.67;;;2.47;;
73733;SDS011;62039;50.000;9.064;2022-07-22T10:15:11;2.10;;;2.00;;
73733;SDS011;62039;50.000;9.064;2022-07-22T10:17:38;2.30;;;2.10;;
73733;SDS011;62039;50.000;9.064;2022-07-22T10:20:08;2.13;;;2.03;;
73733;SDS011;62039;50.000;9.064;2022-07-22T10:22:49;2.90;;;2.70;;
73733;SDS011;62039;50.000;9.064;2022-07-22T10:25:25;2.43;;;2.00;;
73733;SDS011;62039;50.000;9.064;2022-07-22T10:27:54;2.20;;;2.00;;
73733;SDS011;62039;50.000;9.064;2022-07-22T10:30:24;2.47;;;2.27;;
73733;SDS011;62039;50.000;9.064;2022-07-22T10:33:05;2.47;;;2.27;;
73733;SDS011;62039;50.000;9.064;2022-07-22T10:35:35;2.17;;;2.07;;
73733;SDS011;62039;50.000;9.064;2022-07-22T10:38:04;2.87;;;2.33;;
73733;SDS011;62039;50.000;9.064;2022-07-22T10:40:44;2.30;;;2.20;;
73733;SDS011;62039;50.000;9.064;2022-07-22T10:43:13;2.30;;;2.10;;
73733;SDS011;62039;50.000;9.064;2022-07-22T10:45:44;2.50;;;2.07;;
73733;SDS011;62039;50.000;9.064;2022-07-22T10:48:13;2.60;;;2.40;;
73733;SDS011;62039;50.000;9.064;2022-07-22T10:50:42;2.50;;;2.10;;
73733;SDS011;62039;50.000;9.064;2022-07-22T10:53:14;2.27;;;2.17;;
73733;SDS011;62039;50.000;9.064;2022-07-22T10:55:58;2.03;;;1.93;;
73733;SDS011;62039;50.000;9.064;2022-07-22T10:58:43;2.60;;;2.40;;
73733;SDS011;62039;50.000;9.064;2022-07-22T11:01:16;2.10;;;2.00;;
73733;SDS011;62039;50.000;9.064;2022-07-22T11:03:44;2.00;;;1.90;;
73733;SDS011;62039;50.000;9.064;2022-07-22T11:06:12;2.50;;;2.30;;
73733;SDS011;62039;50.000;9.064;2022-07-22T11:08:41;2.70;;;2.50;;
73733;SDS011;62039;50.000;9.064;2022-07-22T11:11:09;2.50;;;2.00;;
73733;SDS011;62039;50.000;9.064;2022-07-22T11:13:36;2.10;;;2.00;;
73733;SDS011;62039;50.000;9.064;2022-07-22T11:16:16;2.50;;;2.30;;
73733;SDS011;62039;50.000;9.064;2022-07-22T11:18:44;2.10;;;2.00;;
73733;SDS011;62039;50.000;9.064;2022-07-22T11:21:13;2.37;;;2.13;;
73733;SDS011;62039;50.000;9.064;2022-07-22T11:23:42;2.60;;;2.40;;
73733;SDS011;62039;50.000;9.064;2022-07-22T11:26:08;3.10;;;2.80;;
73733;SDS011;62039;50.000;9.064;2022-07-22T11:28:39;2.40;;;2.13;;
73733;SDS011;62039;50.000;9.064;2022-07-22T11:31:06;2.00;;;1.90;;
73733;SDS011;62039;50.000;9.064;2022-07-22T11:33:34;2.20;;;2.00;;
73733;SDS011;62039;50.000;9.064;2022-07-22T11:36:02;2.30;;;2.20;;
73733;SDS011;62039;50.000;9.064;2022-07-22T11:38:42;2.40;;;2.20;;
73733;SDS011;62039;50.000;9.064;2022-07-22T11:41:18;2.50;;;2.30;;
73733;SDS011;62039;50.000;9.064;2022-07-22T11:43:46;2.40;;;2.20;;
73733;SDS011;62039;50.000;9.064;2022-07-22T11:46:14;2.43;;;2.23;;
73733;SDS011;62039;50.000;9.064;2022-07-22T11:48:43;3.03;;;2.30;;
73733;SDS011;62039;50.000;9.064;2022-07-22T11:51:11;4.13;;;2.77;;
73733;SDS011;62039;50.000;9.064;2022-07-22T11:53:47;2.30;;;2.20;;
73733;SDS011;62039;50.000;9.064;2022-07-22T11:56:13;3.40;;;2.30;;
73733;SDS011;62039;50.000;9.064;2022-07-22T11:58:41;2.50;;;2.30;;
73733;SDS011;62039;50.000;9.064;2022-07-22T12:01:10;2.00;;;1.88;;
73733;SDS011;62039;50.000;9.064;2022-07-22T12:03:39;2.17;;;2.00;;
73733;SDS011;62039;50.000;9.064;2022-07-22T12:06:11;2.22;;;2.03;;
73733;SDS011;62039;50.000;9.064;2022-07-22T12:12:08;3.03;;;2.47;;
73733;SDS011;62039;50.000;9.064;2022-07-22T12:14:35;2.47;;;2.28;;
73733;SDS011;62039;50.000;9.064;2022-07-22T12:17:02;2.25;;;2.05;;
73733;SDS011;62039;50.000;9.064;2022-07-22T12:19:31;2.40;;;2.20;;
73733;SDS011;62039;50.000;9.064;2022-07-22T12:22:02;2.70;;;2.50;;
73733;SDS011;62039;50.000;9.064;2022-07-22T12:24:30;2.17;;;1.98;;
73733;SDS011;62039;50.000;9.064;2022-07-22T12:26:59;3.08;;;2.78;;
73733;SDS011;62039;50.000;9.064;2022-07-22T12:29:28;2.00;;;1.90;;
73733;SDS011;62039;50.000;9.064;2022-07-22T12:31:57;3.15;;;2.90;;
73733;SDS011;62039;50.000;9.064;2022-07-22T12:34:29;2.30;;;2.10;;
73733;SDS011;62039;50.000;9.064;2022-07-22T12:36:58;3.58;;;2.63;;
73733;SDS011;62039;50.000;9.064;2022-07-22T12:39:27;3.30;;;3.00;;
73733;SDS011;62039;50.000;9.064;2022-07-22T12:41:55;3.10;;;2.90;;
73733;SDS011;62039;50.000;9.064;2022-07-22T12:44:22;2.97;;;2.47;;
73733;SDS011;62039;50.000;9.064;2022-07-22T12:46:51;2.83;;;2.60;;
73733;SDS011;62039;50.000;9.064;2022-07-22T12:49:19;3.20;;;2.90;;
73733;SDS011;62039;50.000;9.064;2022-07-22T12:52:06;3.22;;;3.03;;
73733;SDS011;62039;50.000;9.064;2022-07-22T12:54:35;2.65;;;2.55;;
73733;SDS011;62039;50.000;9.064;2022-07-22T12:57:03;2.90;;;2.70;;
73733;SDS011;62039;50.000;9.064;2022-07-22T12:59:31;3.00;;;2.70;;
73733;SDS011;62039;50.000;9.064;2022-07-22T13:01:58;2.30;;;2.03;;
73733;SDS011;62039;50.000;9.064;2022-07-22T13:04:34;2.78;;;2.58;;
73733;SDS011;62039;50.000;9.064;2022-07-22T13:07:00;3.35;;;2.20;;
73733;SDS011;62039;50.000;9.064;2022-07-22T13:09:27;2.78;;;2.58;;
73733;SDS011;62039;50.000;9.064;2022-07-22T13:11:55;2.40;;;2.20;;
73733;SDS011;62039;50.000;9.064;2022-07-22T13:14:22;2.30;;;2.10;;
73733;SDS011;62039;50.000;9.064;2022-07-22T13:16:48;2.50;;;2.30;;
73733;SDS011;62039;50.000;9.064;2022-07-22T13:19:15;2.60;;;2.40;;
73733;SDS011;62039;50.000;9.064;2022-07-22T13:21:41;2.55;;;2.35;;
73733;SDS011;62039;50.000;9.064;2022-07-22T13:24:09;2.60;;;2.40;;
73733;SDS011;62039;50.000;9.064;2022-07-22T13:26:36;2.83;;;2.58;;
73733;SDS011;62039;50.000;9.064;2022-07-22T13:29:04;2.70;;;2.50;;
73733;SDS011;62039;50.000;9.064;2022-07-22T13:31:30;2.67;;;2.40;;
73733;SDS011;62039;50.000;9.064;2022-07-22T13:33:57;2.90;;;2.65;;
73733;SDS011;62039;50.000;9.064;2022-07-22T13:36:25;2.92;;;2.72;;
73733;SDS011;62039;50.000;9.064;2022-07-22T13:38:51;2.70;;;2.50;;
73733;SDS011;62039;50.000;9.064;2022-07-22T13:41:18;2.53;;;2.33;;
73733;SDS011;62039;50.000;9.064;2022-07-22T13:43:44;2.53;;;2.33;;
73733;SDS011;62039;50.000;9.064;2022-07-22T13:46:13;2.63;;;2.40;;
73733;SDS011;62039;50.000;9.064;2022-07-22T13:48:39;3.60;;;2.15;;
73733;SDS011;62039;50.000;9.064;2022-07-22T13:51:06;2.22;;;2.10;;
73733;SDS011;62039;50.000;9.064;2022-07-22T13:53:33;2.20;;;2.10;;
73733;SDS011;62039;50.000;9.064;2022-07-22T13:55:59;2.53;;;2.33;;
73733;SDS011;62039;50.000;9.064;2022-07-22T13:58:26;2.92;;;2.70;;
73733;SDS011;62039;50.000;9.064;2022-07-22T14:00:53;2.40;;;2.22;;
73733;SDS011;62039;50.000;9.064;2022-07-22T14:03:21;3.30;;;3.00;;
73733;SDS011;62039;50.000;9.064;2022-07-22T14:05:48;2.70;;;2.50;;
73733;SDS011;62039;50.000;9.064;2022-07-22T14:08:15;2.45;;;2.25;;
73733;SDS011;62039;50.000;9.064;2022-07-22T14:10:42;2.50;;;2.30;;
73733;SDS011;62039;50.000;9.064;2022-07-22T14:13:08;2.50;;;2.30;;
73733;SDS011;62039;50.000;9.064;2022-07-22T14:15:35;2.38;;;2.17;;
73733;SDS011;62039;50.000;9.064;2022-07-22T14:18:01;2.67;;;2.47;;
73733;SDS011;62039;50.000;9.064;2022-07-22T14:20:29;2.67;;;2.47;;
73733;SDS011;62039;50.000;9.064;2022-07-22T14:22:56;3.42;;;2.65;;
73733;SDS011;62039;50.000;9.064;2022-07-22T14:25:23;2.92;;;2.63;;
73733;SDS011;62039;50.000;9.064;2022-07-22T14:27:49;2.75;;;2.50;;
73733;SDS011;62039;50.000;9.064;2022-07-22T14:30:36;3.00;;;2.72;;
73733;SDS011;62039;50.000;9.064;2022-07-22T14:33:03;2.58;;;2.38;;
73733;SDS011;62039;50.000;9.064;2022-07-22T14:35:31;3.13;;;2.40;;
73733;SDS011;62039;50.000;9.064;2022-07-22T14:37:57;2.47;;;2.28;;
73733;SDS011;62039;50.000;9.064;2022-07-22T14:40:24;2.80;;;2.60;;
73733;SDS011;62039;50.000;9.064;2022-07-22T14:42:50;2.85;;;2.65;;
73733;SDS011;62039;50.000;9.064;2022-07-22T14:45:37;2.30;;;2.20;;
73733;SDS011;62039;50.000;9.064;2022-07-22T14:48:04;2.80;;;2.60;;
73733;SDS011;62039;50.000;9.064;2022-07-22T14:50:33;2.20;;;2.10;;
73733;SDS011;62039;50.000;9.064;2022-07-22T14:52:59;4.20;;;2.65;;
73733;SDS011;62039;50.000;9.064;2022-07-22T14:55:26;2.58;;;2.38;;
73733;SDS011;62039;50.000;9.064;2022-07-22T14:57:52;3.03;;;2.67;;